createdAt,value
2023-08-31T00:01:29.453Z,8.47
2023-08-31T00:03:58.536Z,8.10
2023-08-31T00:06:27.505Z,7.87
2023-08-31T00:08:56.345Z,7.07
2023-08-31T00:11:27.260Z,7.37
2023-08-31T00:13:56.179Z,7.30
2023-08-31T00:16:28.309Z,7.43
2023-08-31T00:18:58.404Z,7.67
2023-08-31T00:21:27.248Z,6.90
2023-08-31T00:23:56.329Z,7.70
2023-08-31T00:26:26.667Z,8.40
2023-08-31T00:28:55.518Z,8.00
2023-08-31T00:31:24.508Z,8.23
2023-08-31T00:33:53.450Z,9.10
2023-08-31T00:36:22.232Z,7.83
2023-08-31T00:38:51.085Z,7.93
2023-08-31T00:41:19.877Z,7.90
2023-08-31T00:43:50.324Z,7.50
2023-08-31T00:46:19.197Z,7.27
2023-08-31T00:48:48.216Z,7.60
2023-08-31T00:51:17.146Z,6.30
2023-08-31T00:53:46.060Z,7.60
2023-08-31T00:56:15.818Z,7.23
2023-08-31T00:58:44.578Z,6.80
2023-08-31T01:01:20.964Z,7.53
2023-08-31T01:03:58.990Z,7.83
2023-08-31T01:06:34.936Z,8.47
2023-08-31T01:09:13.340Z,7.50
2023-08-31T01:11:57.339Z,9.07
2023-08-31T01:14:29.818Z,8.57
2023-08-31T01:17:02.118Z,7.57
2023-08-31T01:19:46.990Z,8.03
2023-08-31T01:22:32.600Z,9.10
2023-08-31T01:25:05.832Z,9.20
2023-08-31T01:27:34.997Z,7.87
2023-08-31T01:30:05.181Z,8.70
2023-08-31T01:32:34.409Z,8.97
2023-08-31T01:35:06.759Z,8.50
2023-08-31T01:37:44.122Z,7.90
2023-08-31T01:40:19.279Z,8.80
2023-08-31T01:42:49.091Z,8.80
2023-08-31T01:45:22.387Z,8.50
2023-08-31T01:47:52.018Z,8.63
2023-08-31T01:50:21.198Z,9.03
2023-08-31T01:52:49.982Z,7.30
2023-08-31T01:55:20.872Z,7.87
2023-08-31T01:57:49.699Z,8.80
2023-08-31T02:00:20.554Z,9.07
2023-08-31T02:02:49.524Z,7.40
2023-08-31T02:05:18.398Z,7.53
2023-08-31T02:07:47.171Z,8.97
2023-08-31T02:10:16.201Z,7.10
2023-08-31T02:12:46.526Z,7.93
2023-08-31T02:15:15.354Z,8.20
2023-08-31T02:17:44.808Z,8.63
2023-08-31T02:20:15.522Z,7.47
2023-08-31T02:22:44.372Z,7.60
2023-08-31T02:25:13.885Z,6.93
2023-08-31T02:27:42.689Z,7.93
2023-08-31T02:30:13.448Z,7.60
2023-08-31T02:32:42.295Z,7.70
2023-08-31T02:35:11.253Z,7.20
2023-08-31T02:37:40.027Z,7.47
2023-08-31T02:40:09.970Z,8.00
2023-08-31T02:42:40.183Z,8.23
2023-08-31T02:45:09.797Z,9.43
2023-08-31T02:47:40.158Z,8.83
2023-08-31T02:50:10.199Z,8.80
2023-08-31T02:52:39.041Z,8.67
2023-08-31T02:55:08.941Z,8.70
2023-08-31T02:57:37.723Z,9.73
2023-08-31T03:00:11.725Z,9.17
2023-08-31T03:02:42.065Z,9.40
2023-08-31T03:05:11.009Z,8.80
2023-08-31T03:07:39.893Z,9.10
2023-08-31T03:10:08.647Z,9.50
2023-08-31T03:12:37.388Z,9.47
2023-08-31T03:15:08.633Z,8.80
2023-08-31T03:17:37.706Z,10.07
2023-08-31T03:20:10.294Z,9.03
2023-08-31T03:22:39.156Z,8.80
2023-08-31T03:25:08.474Z,10.10
2023-08-31T03:27:37.395Z,10.73
2023-08-31T03:30:07.184Z,9.50
2023-08-31T03:32:36.164Z,10.13
2023-08-31T03:35:06.088Z,9.47
2023-08-31T03:37:36.322Z,9.60
2023-08-31T03:40:08.014Z,10.00
2023-08-31T03:42:37.184Z,9.50
2023-08-31T03:45:06.904Z,14.73
2023-08-31T03:47:35.673Z,9.83
2023-08-31T03:50:05.357Z,10.93
2023-08-31T03:52:35.569Z,10.60
2023-08-31T03:55:04.414Z,8.87
2023-08-31T03:57:33.211Z,10.70
2023-08-31T04:00:02.044Z,9.97
2023-08-31T04:02:32.556Z,9.80
2023-08-31T04:05:01.358Z,8.60
2023-08-31T04:07:30.189Z,11.07
2023-08-31T04:10:00.418Z,10.47
2023-08-31T04:12:30.713Z,10.30
2023-08-31T04:14:59.618Z,10.30
2023-08-31T04:17:28.643Z,10.20
2023-08-31T04:19:57.761Z,14.60
2023-08-31T04:22:27.442Z,10.43
2023-08-31T04:24:56.328Z,10.77
2023-08-31T04:27:26.623Z,10.97
2023-08-31T04:29:55.398Z,10.50
2023-08-31T04:32:24.249Z,10.70
2023-08-31T04:34:53.336Z,10.10
2023-08-31T04:37:24.378Z,10.27
2023-08-31T04:39:53.235Z,11.80
2023-08-31T04:42:22.100Z,13.70
2023-08-31T04:44:52.765Z,9.90
2023-08-31T04:47:21.713Z,10.13
2023-08-31T04:49:50.610Z,11.33
2023-08-31T04:52:19.484Z,9.83
2023-08-31T04:54:48.355Z,11.37
2023-08-31T04:57:17.192Z,10.57
2023-08-31T04:59:45.973Z,10.37
2023-08-31T05:02:16.125Z,13.93
2023-08-31T05:04:44.891Z,13.37
2023-08-31T05:07:13.737Z,13.10
2023-08-31T05:09:42.558Z,12.33
2023-08-31T05:12:12.709Z,11.03
2023-08-31T05:14:41.702Z,10.17
2023-08-31T05:17:10.586Z,10.70
2023-08-31T05:19:40.913Z,11.20
2023-08-31T05:22:09.702Z,11.60
2023-08-31T05:24:38.522Z,10.10
2023-08-31T05:27:07.554Z,10.10
2023-08-31T05:29:36.363Z,10.80
2023-08-31T05:32:12.575Z,11.20
2023-08-31T05:35:03.712Z,11.17
2023-08-31T05:37:36.799Z,11.40
2023-08-31T05:40:08.267Z,11.20
2023-08-31T05:42:37.216Z,11.77
2023-08-31T05:45:06.683Z,11.03
2023-08-31T05:47:36.145Z,11.47
2023-08-31T05:50:08.553Z,12.83
2023-08-31T05:52:37.433Z,9.73
2023-08-31T05:55:08.145Z,10.30
2023-08-31T05:57:36.863Z,11.20
2023-08-31T06:00:07.008Z,12.23
2023-08-31T06:02:36.847Z,11.87
2023-08-31T06:05:08.146Z,11.47
2023-08-31T06:07:36.987Z,13.27
2023-08-31T06:10:07.126Z,11.27
2023-08-31T06:12:36.243Z,12.00
2023-08-31T06:15:05.611Z,14.33
2023-08-31T06:17:36.492Z,14.70
2023-08-31T06:20:10.403Z,13.33
2023-08-31T06:22:39.430Z,13.17
2023-08-31T06:25:09.454Z,13.13
2023-08-31T06:27:38.280Z,13.13
2023-08-31T06:30:08.903Z,13.57
2023-08-31T06:32:37.751Z,12.23
2023-08-31T06:35:08.921Z,13.07
2023-08-31T06:37:37.852Z,11.30
2023-08-31T06:40:07.969Z,10.73
2023-08-31T06:42:37.110Z,12.10
2023-08-31T06:45:06.655Z,12.50
2023-08-31T06:47:36.247Z,11.30
2023-08-31T06:50:06.648Z,10.97
2023-08-31T06:52:38.008Z,9.40
2023-08-31T06:55:07.482Z,8.50
2023-08-31T06:57:38.169Z,9.63
2023-08-31T07:00:09.625Z,9.53
2023-08-31T07:02:42.125Z,9.30
2023-08-31T07:05:12.726Z,8.10
2023-08-31T07:07:43.021Z,7.57
2023-08-31T07:10:12.196Z,9.07
2023-08-31T07:12:40.913Z,8.53
2023-08-31T07:15:10.315Z,7.70
2023-08-31T07:17:40.169Z,7.63
2023-08-31T07:20:10.791Z,7.43
2023-08-31T07:22:39.939Z,8.13
2023-08-31T07:25:11.338Z,7.83
2023-08-31T07:27:40.266Z,7.87
2023-08-31T07:30:10.287Z,7.63
2023-08-31T07:32:39.163Z,7.03
2023-08-31T07:35:08.169Z,7.63
2023-08-31T07:37:38.495Z,8.63
2023-08-31T07:40:11.501Z,8.83
2023-08-31T07:42:40.515Z,9.37
2023-08-31T07:45:10.600Z,8.80
2023-08-31T07:47:39.299Z,9.50
2023-08-31T07:50:10.712Z,9.13
2023-08-31T07:52:39.960Z,9.83
2023-08-31T07:55:11.551Z,8.30
2023-08-31T07:57:40.423Z,11.30
2023-08-31T08:00:10.564Z,7.60
2023-08-31T08:02:39.288Z,8.47
2023-08-31T08:05:08.774Z,8.63
2023-08-31T08:07:37.947Z,8.10
2023-08-31T08:10:07.482Z,9.27
2023-08-31T08:12:41.779Z,7.97
2023-08-31T08:15:10.556Z,7.60
2023-08-31T08:17:39.425Z,7.80
2023-08-31T08:20:10.693Z,11.13
2023-08-31T08:22:39.493Z,9.23
2023-08-31T08:25:09.215Z,7.83
2023-08-31T08:27:38.192Z,8.17
2023-08-31T08:30:10.821Z,7.30
2023-08-31T08:32:39.542Z,8.00
2023-08-31T08:35:09.106Z,7.43
2023-08-31T08:37:37.889Z,6.80
2023-08-31T08:40:07.861Z,7.67
2023-08-31T08:42:43.678Z,7.67
2023-08-31T08:45:18.046Z,6.93
2023-08-31T08:47:47.391Z,6.43
2023-08-31T08:50:16.982Z,7.50
2023-08-31T08:52:46.849Z,8.10
2023-08-31T08:55:16.181Z,7.90
2023-08-31T08:57:45.250Z,7.33
2023-08-31T09:00:16.647Z,7.43
2023-08-31T09:02:46.883Z,7.13
2023-08-31T09:05:15.822Z,7.40
2023-08-31T09:08:06.283Z,7.30
2023-08-31T09:10:39.626Z,7.10
2023-08-31T09:13:10.581Z,7.70
2023-08-31T09:15:43.318Z,4.33
2023-08-31T09:18:17.657Z,3.77
2023-08-31T09:20:47.785Z,3.90
2023-08-31T09:23:17.301Z,3.13
2023-08-31T09:25:47.436Z,3.27
2023-08-31T09:28:16.303Z,3.40
2023-08-31T09:30:48.456Z,4.13
2023-08-31T09:33:22.606Z,3.30
2023-08-31T09:35:55.283Z,3.00
2023-08-31T09:38:24.463Z,3.17
2023-08-31T09:40:53.254Z,3.90
2023-08-31T09:43:23.460Z,4.00
2023-08-31T09:45:55.128Z,2.87
2023-08-31T09:48:25.822Z,4.10
2023-08-31T09:50:57.175Z,3.80
2023-08-31T09:53:29.545Z,6.20
2023-08-31T09:55:59.762Z,5.10
2023-08-31T09:58:29.634Z,4.90
2023-08-31T10:01:03.545Z,5.53
2023-08-31T10:03:34.392Z,4.53
2023-08-31T10:06:04.717Z,4.10
2023-08-31T10:08:35.709Z,4.50
2023-08-31T10:11:06.552Z,4.77
2023-08-31T10:13:39.246Z,4.30
2023-08-31T10:16:09.996Z,4.20
2023-08-31T10:18:39.317Z,4.43
2023-08-31T10:21:08.377Z,4.33
2023-08-31T10:23:39.491Z,5.27
2023-08-31T10:26:08.717Z,5.43
2023-08-31T10:28:45.224Z,5.20
2023-08-31T10:31:19.815Z,4.73
2023-08-31T10:34:08.242Z,4.83
2023-08-31T10:36:42.037Z,5.37
2023-08-31T10:43:18.191Z,5.83
2023-08-31T10:45:47.413Z,5.90
2023-08-31T10:48:20.515Z,6.17
2023-08-31T10:50:49.568Z,6.57
2023-08-31T10:53:18.407Z,5.37
2023-08-31T10:55:54.956Z,6.50
2023-08-31T10:58:23.746Z,5.40
2023-08-31T11:00:54.960Z,5.17
2023-08-31T11:03:25.308Z,5.03
2023-08-31T11:05:54.601Z,4.83
2023-08-31T11:08:27.410Z,4.30
2023-08-31T11:10:56.237Z,3.73
2023-08-31T11:13:26.110Z,3.77
2023-08-31T11:15:54.997Z,3.27
2023-08-31T11:18:26.501Z,3.47
2023-08-31T11:20:57.023Z,3.20
2023-08-31T11:23:25.968Z,3.13
2023-08-31T11:25:54.804Z,3.00
2023-08-31T11:28:23.626Z,3.23
2023-08-31T11:30:52.516Z,3.97
2023-08-31T11:33:21.524Z,2.87
2023-08-31T11:35:52.331Z,4.33
2023-08-31T11:38:21.916Z,2.30
2023-08-31T11:40:53.344Z,3.20
2023-08-31T11:43:22.934Z,3.57
2023-08-31T11:45:52.254Z,2.50
2023-08-31T11:48:21.559Z,2.43
2023-08-31T11:50:54.342Z,3.00
2023-08-31T11:53:23.102Z,2.47
2023-08-31T11:55:55.598Z,3.10
2023-08-31T11:58:25.822Z,2.63
2023-08-31T12:01:01.717Z,2.80
2023-08-31T12:03:44.576Z,2.63
2023-08-31T12:06:20.760Z,4.73
2023-08-31T12:08:49.779Z,2.80
2023-08-31T12:11:18.809Z,2.97
2023-08-31T12:13:48.009Z,3.00
2023-08-31T12:16:18.797Z,4.13
2023-08-31T12:18:48.363Z,2.60
2023-08-31T12:21:17.292Z,2.13
2023-08-31T12:23:47.518Z,3.10
2023-08-31T12:26:16.342Z,3.33
2023-08-31T12:28:45.208Z,2.60
2023-08-31T12:31:14.108Z,4.13
2023-08-31T12:33:43.062Z,3.23
2023-08-31T12:36:21.801Z,3.23
2023-08-31T12:38:54.275Z,2.80
2023-08-31T12:41:24.957Z,3.00
2023-08-31T12:43:53.921Z,2.87
2023-08-31T12:46:22.794Z,3.40
2023-08-31T12:48:52.263Z,2.60
2023-08-31T12:51:22.637Z,2.90
2023-08-31T12:53:52.949Z,2.00
2023-08-31T12:56:23.863Z,3.60
2023-08-31T12:58:53.541Z,3.53
2023-08-31T13:01:25.040Z,4.03
2023-08-31T13:03:54.459Z,3.07
2023-08-31T13:06:23.289Z,2.90
2023-08-31T13:08:53.479Z,2.93
2023-08-31T13:11:25.013Z,3.43
2023-08-31T13:13:54.472Z,2.77
2023-08-31T13:16:26.012Z,3.90
2023-08-31T13:18:55.291Z,2.73
2023-08-31T13:21:24.470Z,3.40
2023-08-31T13:23:54.705Z,2.93
2023-08-31T13:26:23.555Z,3.30
2023-08-31T13:28:52.340Z,2.63
2023-08-31T13:31:21.097Z,3.30
2023-08-31T13:33:50.243Z,2.83
2023-08-31T13:36:19.009Z,3.00
2023-08-31T13:38:54.048Z,3.57
2023-08-31T13:41:24.809Z,2.70
2023-08-31T13:43:53.707Z,2.90
2023-08-31T13:46:22.716Z,2.67
2023-08-31T13:48:51.985Z,2.53
2023-08-31T13:51:20.820Z,2.13
2023-08-31T13:53:49.949Z,2.70
2023-08-31T13:56:18.808Z,2.70
2023-08-31T13:58:49.032Z,3.00
2023-08-31T14:01:18.127Z,2.27
2023-08-31T14:03:47.439Z,2.43
2023-08-31T14:06:17.329Z,3.63
2023-08-31T14:08:46.165Z,3.40
2023-08-31T14:11:15.733Z,6.80
2023-08-31T14:13:47.843Z,2.37
2023-08-31T14:16:18.103Z,3.20
2023-08-31T14:18:47.960Z,3.30
2023-08-31T14:21:18.715Z,2.33
2023-08-31T14:23:47.809Z,2.23
2023-08-31T14:26:16.709Z,2.53
2023-08-31T14:28:46.854Z,2.77
2023-08-31T14:31:17.090Z,2.20
2023-08-31T14:33:48.085Z,2.13
2023-08-31T14:36:19.505Z,2.20
2023-08-31T14:38:48.693Z,2.70
2023-08-31T14:41:18.725Z,2.67
2023-08-31T14:43:48.021Z,2.53
2023-08-31T14:46:17.440Z,2.77
2023-08-31T14:48:48.976Z,2.10
2023-08-31T14:51:20.213Z,2.57
2023-08-31T14:53:49.771Z,2.70
2023-08-31T14:56:19.604Z,1.90
2023-08-31T14:58:49.452Z,2.60
2023-08-31T15:01:20.615Z,2.57
2023-08-31T15:03:52.325Z,2.40
2023-08-31T15:06:22.660Z,2.23
2023-08-31T15:08:53.346Z,2.40
2023-08-31T15:11:22.700Z,2.57
2023-08-31T15:13:51.722Z,2.33
2023-08-31T15:16:21.496Z,2.20
2023-08-31T15:18:56.432Z,2.20
2023-08-31T15:21:28.909Z,2.00
2023-08-31T15:23:59.798Z,2.70
2023-08-31T15:26:29.400Z,3.10
2023-08-31T15:29:00.614Z,1.80
2023-08-31T15:31:30.406Z,2.20
2023-08-31T15:34:01.820Z,2.67
2023-08-31T15:36:31.707Z,2.27
2023-08-31T15:39:01.768Z,2.93
2023-08-31T15:41:35.493Z,2.30
2023-08-31T15:44:06.376Z,2.70
2023-08-31T15:46:35.987Z,5.73
2023-08-31T15:49:08.368Z,2.17
2023-08-31T15:51:38.260Z,2.43
2023-08-31T15:54:09.276Z,3.00
2023-08-31T15:56:38.685Z,1.90
2023-08-31T15:59:08.026Z,2.40
2023-08-31T16:01:37.759Z,2.03
2023-08-31T16:04:11.346Z,2.40
2023-08-31T16:06:42.545Z,3.17
2023-08-31T16:09:12.122Z,2.50
2023-08-31T16:11:42.366Z,2.90
2023-08-31T16:14:13.011Z,2.20
2023-08-31T16:16:46.735Z,4.67
2023-08-31T16:19:17.752Z,1.50
2023-08-31T16:21:47.306Z,1.60
2023-08-31T16:24:18.303Z,2.53
2023-08-31T16:26:49.306Z,2.47
2023-08-31T16:29:18.474Z,1.87
2023-08-31T16:31:48.732Z,3.90
2023-08-31T16:34:19.191Z,1.97
2023-08-31T16:36:50.923Z,3.53
2023-08-31T16:39:22.698Z,2.60
2023-08-31T16:41:52.182Z,2.67
2023-08-31T16:44:26.232Z,4.13
2023-08-31T16:46:56.215Z,3.00
2023-08-31T16:49:33.061Z,1.53
2023-08-31T16:52:03.651Z,4.17
2023-08-31T16:54:35.092Z,2.10
2023-08-31T16:57:04.585Z,1.70
2023-08-31T16:59:33.563Z,2.27
2023-08-31T17:02:05.252Z,2.47
2023-08-31T17:04:38.370Z,1.60
2023-08-31T17:07:08.194Z,2.50
2023-08-31T17:09:38.268Z,2.83
2023-08-31T17:12:09.127Z,3.33
2023-08-31T17:14:43.734Z,2.30
2023-08-31T17:17:15.591Z,2.53
2023-08-31T17:19:47.845Z,2.43
2023-08-31T17:22:18.089Z,2.43
2023-08-31T17:24:48.978Z,2.60
2023-08-31T17:27:20.073Z,2.07
2023-08-31T17:29:51.309Z,4.67
2023-08-31T17:32:24.693Z,2.87
2023-08-31T17:35:00.286Z,2.67
2023-08-31T17:37:30.229Z,3.40
2023-08-31T17:40:00.867Z,3.67
2023-08-31T17:42:32.235Z,2.60
2023-08-31T17:45:09.008Z,3.17
2023-08-31T17:47:38.741Z,2.80
2023-08-31T17:50:11.394Z,3.00
2023-08-31T17:52:41.336Z,3.90
2023-08-31T17:55:12.037Z,4.10
2023-08-31T17:57:44.964Z,3.50
2023-08-31T18:00:19.194Z,3.37
2023-08-31T18:02:53.588Z,5.00
2023-08-31T18:05:25.591Z,2.80
2023-08-31T18:07:57.715Z,2.70
2023-08-31T18:10:27.910Z,4.30
2023-08-31T18:13:00.201Z,3.20
2023-08-31T18:15:30.769Z,4.50
2023-08-31T18:18:00.128Z,3.47
2023-08-31T18:20:36.228Z,3.60
2023-08-31T18:23:05.971Z,3.03
2023-08-31T18:25:37.602Z,3.43
2023-08-31T18:28:11.450Z,3.50
2023-08-31T18:30:42.194Z,3.20
2023-08-31T18:33:12.837Z,3.73
2023-08-31T18:35:57.822Z,4.40
2023-08-31T18:38:31.568Z,4.27
2023-08-31T18:41:04.829Z,3.40
2023-08-31T18:43:34.116Z,3.13
2023-08-31T18:46:11.781Z,3.50
2023-08-31T18:48:45.149Z,6.30
2023-08-31T18:51:16.493Z,3.33
2023-08-31T18:53:46.780Z,3.43
2023-08-31T18:56:17.054Z,3.43
2023-08-31T18:58:47.317Z,4.53
2023-08-31T19:01:19.917Z,4.63
2023-08-31T19:03:53.074Z,8.80
2023-08-31T19:06:29.381Z,3.00
2023-08-31T19:09:02.073Z,10.23
2023-08-31T19:11:33.510Z,3.37
2023-08-31T19:14:05.482Z,5.37
2023-08-31T19:16:36.911Z,5.73
2023-08-31T19:19:08.658Z,3.30
2023-08-31T19:21:39.378Z,5.03
2023-08-31T19:24:10.258Z,3.20
2023-08-31T19:26:42.446Z,3.87
2023-08-31T19:29:12.769Z,3.87
2023-08-31T19:31:44.303Z,3.80
2023-08-31T19:34:15.363Z,3.87
2023-08-31T19:36:48.857Z,5.40
2023-08-31T19:39:22.002Z,3.43
2023-08-31T19:41:51.905Z,3.50
2023-08-31T19:44:27.656Z,3.57
2023-08-31T19:47:05.440Z,4.90
2023-08-31T19:49:43.587Z,3.67
2023-08-31T19:52:19.352Z,2.77
2023-08-31T19:54:54.303Z,5.43
2023-08-31T19:57:24.058Z,5.70
2023-08-31T19:59:54.687Z,3.47
2023-08-31T20:02:30.991Z,6.63
2023-08-31T20:05:02.835Z,3.50
2023-08-31T20:07:34.450Z,3.00
2023-08-31T20:10:05.527Z,2.90
2023-08-31T20:12:36.305Z,2.77
2023-08-31T20:15:07.195Z,3.27
2023-08-31T20:17:39.076Z,2.73
2023-08-31T20:20:12.741Z,2.80
2023-08-31T20:22:58.690Z,3.23
2023-08-31T20:25:30.074Z,4.73
2023-08-31T20:28:01.704Z,3.37
2023-08-31T20:30:31.760Z,3.03
2023-08-31T20:33:01.520Z,3.00
2023-08-31T20:35:32.940Z,3.80
2023-08-31T20:38:05.995Z,3.50
2023-08-31T20:40:42.158Z,4.23
2023-08-31T20:43:12.501Z,3.67
2023-08-31T20:45:43.392Z,3.87
2023-08-31T20:48:16.257Z,3.53
2023-08-31T20:50:46.395Z,3.17
2023-08-31T20:53:16.762Z,2.60
2023-08-31T20:55:46.988Z,3.93
2023-08-31T20:58:17.335Z,3.40
2023-08-31T21:00:46.335Z,6.90
2023-08-31T21:03:15.914Z,3.30
2023-08-31T21:05:45.478Z,2.77
2023-08-31T21:08:16.324Z,4.80
2023-08-31T21:10:45.235Z,3.60
2023-08-31T21:13:14.131Z,2.80
2023-08-31T21:15:43.032Z,2.50
2023-08-31T21:20:43.025Z,1.53
2023-08-31T21:23:13.750Z,2.50
2023-08-31T21:25:45.196Z,2.50
2023-08-31T21:28:14.228Z,1.90
2023-08-31T21:30:43.280Z,3.67
2023-08-31T21:33:12.551Z,1.97
2023-08-31T21:35:44.733Z,2.03
2023-08-31T21:38:14.222Z,3.53
2023-08-31T21:40:48.299Z,2.00
2023-08-31T21:43:17.470Z,1.90
2023-08-31T21:45:46.314Z,1.97
2023-08-31T21:48:15.470Z,2.00
2023-08-31T21:50:44.478Z,2.03
2023-08-31T21:53:13.425Z,2.63
2023-08-31T21:55:43.926Z,2.37
2023-08-31T21:58:13.419Z,3.00
2023-08-31T22:00:42.431Z,2.03
2023-08-31T22:03:11.385Z,2.43
2023-08-31T22:05:43.094Z,2.93
2023-08-31T22:08:14.005Z,2.70
2023-08-31T22:10:44.708Z,2.53
2023-08-31T22:13:13.967Z,2.40
2023-08-31T22:15:44.064Z,3.10
2023-08-31T22:18:13.219Z,2.03
2023-08-31T22:20:42.543Z,2.80
2023-08-31T22:23:11.477Z,2.70
2023-08-31T22:25:40.652Z,2.37
2023-08-31T22:28:11.381Z,2.93
2023-08-31T22:30:42.290Z,2.60
2023-08-31T22:33:11.228Z,4.00
2023-08-31T22:35:40.911Z,2.80
2023-08-31T22:38:10.020Z,4.30
2023-08-31T22:40:39.398Z,3.23
2023-08-31T22:43:08.275Z,2.33
2023-08-31T22:45:38.581Z,2.20
2023-08-31T22:48:08.378Z,2.53
2023-08-31T22:50:37.115Z,3.40
2023-08-31T22:53:06.191Z,3.07
2023-08-31T22:55:34.972Z,3.40
2023-08-31T22:58:04.336Z,3.13
2023-08-31T23:00:33.223Z,3.40
2023-08-31T23:03:04.015Z,2.23
2023-08-31T23:05:33.478Z,2.90
2023-08-31T23:08:02.401Z,3.93
2023-08-31T23:10:32.339Z,3.50
2023-08-31T23:13:01.409Z,2.60
2023-08-31T23:15:30.309Z,3.73
2023-08-31T23:18:00.837Z,5.37
2023-08-31T23:20:31.229Z,4.10
2023-08-31T23:22:59.992Z,3.20
2023-08-31T23:25:28.872Z,3.10
2023-08-31T23:27:57.661Z,3.00
2023-08-31T23:30:26.399Z,4.00
2023-08-31T23:32:55.362Z,3.00
2023-08-31T23:35:24.266Z,3.43
2023-08-31T23:37:54.520Z,3.70
2023-08-31T23:40:23.334Z,3.53
2023-08-31T23:42:52.176Z,4.73
2023-08-31T23:45:20.924Z,3.10
2023-08-31T23:47:49.736Z,3.73
2023-08-31T23:50:18.787Z,4.90
2023-08-31T23:52:47.859Z,3.50
2023-08-31T23:55:18.174Z,4.17
2023-08-31T23:57:46.971Z,4.60
